sensor_id;sensor_type;location;lat;lon;timestamp;P1;durP1;ratioP1;P2;durP2;ratioP2
18947;SDS011;9607;51.600;7.558;2023-07-30T00:01:54;7.15;;;5.35;;
18947;SDS011;9607;51.600;7.558;2023-07-30T00:04:21;6.13;;;5.00;;
18947;SDS011;9607;51.600;7.558;2023-07-30T00:06:48;5.07;;;4.57;;
18947;SDS011;9607;51.600;7.558;2023-07-30T00:09:15;6.82;;;5.68;;
18947;SDS011;9607;51.600;7.558;2023-07-30T00:11:42;4.78;;;4.30;;
18947;SDS011;9607;51.600;7.558;2023-07-30T00:14:10;8.00;;;5.55;;
18947;SDS011;9607;51.600;7.558;2023-07-30T00:16:37;6.50;;;5.47;;
18947;SDS011;9607;51.600;7.558;2023-07-30T00:19:04;6.40;;;4.90;;
18947;SDS011;9607;51.600;7.558;2023-07-30T00:21:31;6.50;;;4.05;;
18947;SDS011;9607;51.600;7.558;2023-07-30T00:23:57;6.07;;;4.53;;
18947;SDS011;9607;51.600;7.558;2023-07-30T00:26:24;5.10;;;4.07;;
18947;SDS011;9607;51.600;7.558;2023-07-30T00:28:51;5.22;;;3.65;;
18947;SDS011;9607;51.600;7.558;2023-07-30T00:31:19;3.80;;;3.47;;
18947;SDS011;9607;51.600;7.558;2023-07-30T00:33:46;4.35;;;3.40;;
18947;SDS011;9607;51.600;7.558;2023-07-30T00:36:13;5.35;;;3.80;;
18947;SDS011;9607;51.600;7.558;2023-07-30T00:38:40;4.35;;;3.45;;
18947;SDS011;9607;51.600;7.558;2023-07-30T00:41:07;4.05;;;2.78;;
18947;SDS011;9607;51.600;7.558;2023-07-30T00:43:33;3.33;;;3.03;;
18947;SDS011;9607;51.600;7.558;2023-07-30T00:46:00;3.00;;;2.40;;
18947;SDS011;9607;51.600;7.558;2023-07-30T00:48:29;2.35;;;2.15;;
18947;SDS011;9607;51.600;7.558;2023-07-30T00:50:56;2.70;;;2.50;;
18947;SDS011;9607;51.600;7.558;2023-07-30T00:53:23;2.10;;;2.00;;
18947;SDS011;9607;51.600;7.558;2023-07-30T00:55:51;2.17;;;1.98;;
18947;SDS011;9607;51.600;7.558;2023-07-30T00:58:18;1.92;;;1.83;;
18947;SDS011;9607;51.600;7.558;2023-07-30T01:00:46;2.17;;;1.98;;
18947;SDS011;9607;51.600;7.558;2023-07-30T01:03:13;2.88;;;2.42;;
18947;SDS011;9607;51.600;7.558;2023-07-30T01:05:41;4.25;;;3.10;;
18947;SDS011;9607;51.600;7.558;2023-07-30T01:08:08;4.07;;;2.80;;
18947;SDS011;9607;51.600;7.558;2023-07-30T01:10:35;2.85;;;2.60;;
18947;SDS011;9607;51.600;7.558;2023-07-30T01:13:04;4.15;;;3.70;;
18947;SDS011;9607;51.600;7.558;2023-07-30T01:15:32;4.47;;;3.50;;
18947;SDS011;9607;51.600;7.558;2023-07-30T01:17:59;9.05;;;4.75;;
18947;SDS011;9607;51.600;7.558;2023-07-30T01:20:29;5.38;;;3.40;;
18947;SDS011;9607;51.600;7.558;2023-07-30T01:22:57;8.23;;;3.97;;
18947;SDS011;9607;51.600;7.558;2023-07-30T01:25:24;5.80;;;3.80;;
18947;SDS011;9607;51.600;7.558;2023-07-30T01:27:54;4.95;;;3.50;;
18947;SDS011;9607;51.600;7.558;2023-07-30T01:30:25;5.13;;;3.90;;
18947;SDS011;9607;51.600;7.558;2023-07-30T01:32:54;6.18;;;3.50;;
18947;SDS011;9607;51.600;7.558;2023-07-30T01:35:22;5.07;;;3.80;;
18947;SDS011;9607;51.600;7.558;2023-07-30T01:37:53;8.30;;;4.40;;
18947;SDS011;9607;51.600;7.558;2023-07-30T01:40:21;6.47;;;4.38;;
18947;SDS011;9607;51.600;7.558;2023-07-30T01:42:48;5.47;;;4.10;;
18947;SDS011;9607;51.600;7.558;2023-07-30T01:45:15;8.35;;;4.68;;
18947;SDS011;9607;51.600;7.558;2023-07-30T01:47:42;4.90;;;3.55;;
18947;SDS011;9607;51.600;7.558;2023-07-30T01:50:09;6.40;;;4.18;;
18947;SDS011;9607;51.600;7.558;2023-07-30T01:52:36;6.15;;;3.78;;
18947;SDS011;9607;51.600;7.558;2023-07-30T01:55:03;7.57;;;3.85;;
18947;SDS011;9607;51.600;7.558;2023-07-30T01:57:32;6.72;;;3.72;;
18947;SDS011;9607;51.600;7.558;2023-07-30T01:59:59;5.20;;;3.60;;
18947;SDS011;9607;51.600;7.558;2023-07-30T02:02:26;5.10;;;3.45;;
18947;SDS011;9607;51.600;7.558;2023-07-30T02:04:53;6.30;;;3.47;;
18947;SDS011;9607;51.600;7.558;2023-07-30T02:07:19;3.40;;;3.10;;
18947;SDS011;9607;51.600;7.558;2023-07-30T02:09:46;3.90;;;2.78;;
18947;SDS011;9607;51.600;7.558;2023-07-30T02:12:13;4.55;;;3.28;;
18947;SDS011;9607;51.600;7.558;2023-07-30T02:14:41;4.25;;;3.25;;
18947;SDS011;9607;51.600;7.558;2023-07-30T02:17:08;9.00;;;4.10;;
18947;SDS011;9607;51.600;7.558;2023-07-30T02:19:35;5.10;;;3.50;;
18947;SDS011;9607;51.600;7.558;2023-07-30T02:22:02;5.13;;;3.38;;
18947;SDS011;9607;51.600;7.558;2023-07-30T02:24:29;4.55;;;3.25;;
18947;SDS011;9607;51.600;7.558;2023-07-30T02:26:56;9.18;;;4.63;;
18947;SDS011;9607;51.600;7.558;2023-07-30T02:29:22;6.05;;;3.50;;
18947;SDS011;9607;51.600;7.558;2023-07-30T02:31:51;5.20;;;3.17;;
18947;SDS011;9607;51.600;7.558;2023-07-30T02:34:18;5.60;;;3.58;;
18947;SDS011;9607;51.600;7.558;2023-07-30T02:36:45;3.97;;;3.30;;
18947;SDS011;9607;51.600;7.558;2023-07-30T02:39:12;7.55;;;4.55;;
18947;SDS011;9607;51.600;7.558;2023-07-30T02:41:38;5.95;;;3.88;;
18947;SDS011;9607;51.600;7.558;2023-07-30T02:44:05;4.05;;;3.65;;
18947;SDS011;9607;51.600;7.558;2023-07-30T02:46:32;4.22;;;3.50;;
18947;SDS011;9607;51.600;7.558;2023-07-30T02:49:00;5.75;;;4.30;;
18947;SDS011;9607;51.600;7.558;2023-07-30T02:51:27;6.30;;;3.53;;
18947;SDS011;9607;51.600;7.558;2023-07-30T02:53:55;4.57;;;3.50;;
18947;SDS011;9607;51.600;7.558;2023-07-30T02:56:24;4.80;;;3.38;;
18947;SDS011;9607;51.600;7.558;2023-07-30T02:58:51;3.35;;;2.90;;
18947;SDS011;9607;51.600;7.558;2023-07-30T03:01:18;3.95;;;3.47;;
18947;SDS011;9607;51.600;7.558;2023-07-30T03:03:44;4.43;;;3.20;;
18947;SDS011;9607;51.600;7.558;2023-07-30T03:06:12;3.85;;;3.45;;
18947;SDS011;9607;51.600;7.558;2023-07-30T03:08:41;3.15;;;2.60;;
18947;SDS011;9607;51.600;7.558;2023-07-30T03:11:08;5.28;;;3.00;;
18947;SDS011;9607;51.600;7.558;2023-07-30T03:13:35;4.57;;;3.25;;
18947;SDS011;9607;51.600;7.558;2023-07-30T03:16:02;4.85;;;3.60;;
18947;SDS011;9607;51.600;7.558;2023-07-30T03:18:29;3.35;;;2.92;;
18947;SDS011;9607;51.600;7.558;2023-07-30T03:20:57;3.92;;;2.70;;
18947;SDS011;9607;51.600;7.558;2023-07-30T03:23:26;6.03;;;3.75;;
18947;SDS011;9607;51.600;7.558;2023-07-30T03:25:53;4.00;;;3.60;;
18947;SDS011;9607;51.600;7.558;2023-07-30T03:28:20;7.10;;;4.07;;
18947;SDS011;9607;51.600;7.558;2023-07-30T03:30:47;5.40;;;3.55;;
18947;SDS011;9607;51.600;7.558;2023-07-30T03:33:14;5.13;;;3.75;;
18947;SDS011;9607;51.600;7.558;2023-07-30T03:35:41;5.25;;;3.33;;
18947;SDS011;9607;51.600;7.558;2023-07-30T03:38:07;4.10;;;3.33;;
18947;SDS011;9607;51.600;7.558;2023-07-30T03:40:35;6.20;;;3.70;;
18947;SDS011;9607;51.600;7.558;2023-07-30T03:43:02;5.88;;;4.00;;
18947;SDS011;9607;51.600;7.558;2023-07-30T03:45:29;8.32;;;5.10;;
18947;SDS011;9607;51.600;7.558;2023-07-30T03:47:56;7.95;;;4.80;;
18947;SDS011;9607;51.600;7.558;2023-07-30T03:50:23;6.90;;;4.43;;
18947;SDS011;9607;51.600;7.558;2023-07-30T03:52:50;7.63;;;4.63;;
18947;SDS011;9607;51.600;7.558;2023-07-30T03:55:17;8.02;;;4.50;;
18947;SDS011;9607;51.600;7.558;2023-07-30T03:57:45;5.95;;;4.35;;
18947;SDS011;9607;51.600;7.558;2023-07-30T04:00:12;5.07;;;3.97;;
18947;SDS011;9607;51.600;7.558;2023-07-30T04:02:39;4.75;;;3.95;;
18947;SDS011;9607;51.600;7.558;2023-07-30T04:05:06;6.00;;;3.55;;
18947;SDS011;9607;51.600;7.558;2023-07-30T04:07:33;4.60;;;3.38;;
18947;SDS011;9607;51.600;7.558;2023-07-30T04:09:59;3.40;;;3.10;;
18947;SDS011;9607;51.600;7.558;2023-07-30T04:12:26;3.28;;;2.78;;
18947;SDS011;9607;51.600;7.558;2023-07-30T04:14:55;7.80;;;4.05;;
18947;SDS011;9607;51.600;7.558;2023-07-30T04:17:21;6.70;;;4.32;;
18947;SDS011;9607;51.600;7.558;2023-07-30T04:19:48;8.65;;;4.22;;
18947;SDS011;9607;51.600;7.558;2023-07-30T04:22:15;12.07;;;5.00;;
18947;SDS011;9607;51.600;7.558;2023-07-30T04:24:42;10.40;;;5.47;;
18947;SDS011;9607;51.600;7.558;2023-07-30T04:27:09;8.60;;;4.75;;
18947;SDS011;9607;51.600;7.558;2023-07-30T04:29:35;9.25;;;4.82;;
18947;SDS011;9607;51.600;7.558;2023-07-30T04:32:04;11.90;;;5.95;;
18947;SDS011;9607;51.600;7.558;2023-07-30T04:34:31;9.43;;;5.07;;
18947;SDS011;9607;51.600;7.558;2023-07-30T04:36:58;16.70;;;6.43;;
18947;SDS011;9607;51.600;7.558;2023-07-30T04:39:27;13.45;;;6.05;;
18947;SDS011;9607;51.600;7.558;2023-07-30T04:41:53;18.67;;;6.07;;
18947;SDS011;9607;51.600;7.558;2023-07-30T04:44:20;7.63;;;4.57;;
18947;SDS011;9607;51.600;7.558;2023-07-30T04:46:47;9.50;;;4.90;;
18947;SDS011;9607;51.600;7.558;2023-07-30T04:49:16;9.82;;;4.97;;
18947;SDS011;9607;51.600;7.558;2023-07-30T04:51:43;8.80;;;4.15;;
18947;SDS011;9607;51.600;7.558;2023-07-30T04:54:10;10.32;;;5.30;;
18947;SDS011;9607;51.600;7.558;2023-07-30T04:56:36;13.05;;;5.50;;
18947;SDS011;9607;51.600;7.558;2023-07-30T04:59:03;11.95;;;5.55;;
18947;SDS011;9607;51.600;7.558;2023-07-30T05:01:30;9.43;;;4.57;;
18947;SDS011;9607;51.600;7.558;2023-07-30T05:03:57;8.30;;;4.50;;
18947;SDS011;9607;51.600;7.558;2023-07-30T05:06:25;10.48;;;4.47;;
18947;SDS011;9607;51.600;7.558;2023-07-30T05:08:52;12.70;;;4.82;;
18947;SDS011;9607;51.600;7.558;2023-07-30T05:11:19;10.70;;;4.68;;
18947;SDS011;9607;51.600;7.558;2023-07-30T05:13:46;10.80;;;4.38;;
18947;SDS011;9607;51.600;7.558;2023-07-30T05:16:14;10.05;;;4.60;;
18947;SDS011;9607;51.600;7.558;2023-07-30T05:18:41;9.32;;;4.20;;
18947;SDS011;9607;51.600;7.558;2023-07-30T05:21:07;10.00;;;4.30;;
18947;SDS011;9607;51.600;7.558;2023-07-30T05:23:36;8.45;;;4.35;;
18947;SDS011;9607;51.600;7.558;2023-07-30T05:26:02;8.13;;;3.97;;
18947;SDS011;9607;51.600;7.558;2023-07-30T05:28:29;11.15;;;4.43;;
18947;SDS011;9607;51.600;7.558;2023-07-30T05:30:56;12.73;;;4.43;;
18947;SDS011;9607;51.600;7.558;2023-07-30T05:33:23;9.18;;;4.30;;
18947;SDS011;9607;51.600;7.558;2023-07-30T05:35:50;8.85;;;5.18;;
18947;SDS011;9607;51.600;7.558;2023-07-30T05:38:17;10.38;;;5.07;;
18947;SDS011;9607;51.600;7.558;2023-07-30T05:40:45;6.68;;;3.97;;
18947;SDS011;9607;51.600;7.558;2023-07-30T05:43:12;5.70;;;4.00;;
18947;SDS011;9607;51.600;7.558;2023-07-30T05:45:39;12.55;;;4.30;;
18947;SDS011;9607;51.600;7.558;2023-07-30T05:48:06;5.28;;;3.78;;
18947;SDS011;9607;51.600;7.558;2023-07-30T05:50:33;8.77;;;4.07;;
18947;SDS011;9607;51.600;7.558;2023-07-30T05:53:00;9.70;;;4.38;;
18947;SDS011;9607;51.600;7.558;2023-07-30T05:55:27;9.25;;;4.50;;
18947;SDS011;9607;51.600;7.558;2023-07-30T05:57:56;8.95;;;4.45;;
18947;SDS011;9607;51.600;7.558;2023-07-30T06:00:22;11.63;;;4.93;;
18947;SDS011;9607;51.600;7.558;2023-07-30T06:02:49;11.45;;;4.60;;
18947;SDS011;9607;51.600;7.558;2023-07-30T06:05:16;20.13;;;5.38;;
18947;SDS011;9607;51.600;7.558;2023-07-30T06:07:43;14.77;;;4.47;;
18947;SDS011;9607;51.600;7.558;2023-07-30T06:10:10;8.55;;;4.28;;
18947;SDS011;9607;51.600;7.558;2023-07-30T06:12:37;13.82;;;4.55;;
18947;SDS011;9607;51.600;7.558;2023-07-30T06:15:09;13.75;;;5.15;;
18947;SDS011;9607;51.600;7.558;2023-07-30T06:17:36;12.77;;;4.68;;
18947;SDS011;9607;51.600;7.558;2023-07-30T06:20:03;12.07;;;5.20;;
18947;SDS011;9607;51.600;7.558;2023-07-30T06:22:30;15.80;;;5.43;;
18947;SDS011;9607;51.600;7.558;2023-07-30T06:24:57;12.15;;;5.10;;
18947;SDS011;9607;51.600;7.558;2023-07-30T06:27:24;12.48;;;4.70;;
18947;SDS011;9607;51.600;7.558;2023-07-30T06:29:51;12.90;;;4.85;;
18947;SDS011;9607;51.600;7.558;2023-07-30T06:32:19;11.05;;;4.80;;
18947;SDS011;9607;51.600;7.558;2023-07-30T06:34:46;10.13;;;4.88;;
18947;SDS011;9607;51.600;7.558;2023-07-30T06:37:13;12.20;;;5.05;;
18947;SDS011;9607;51.600;7.558;2023-07-30T06:39:40;10.30;;;4.82;;
18947;SDS011;9607;51.600;7.558;2023-07-30T06:42:07;9.63;;;4.93;;
18947;SDS011;9607;51.600;7.558;2023-07-30T06:44:34;10.90;;;5.68;;
18947;SDS011;9607;51.600;7.558;2023-07-30T06:47:01;14.45;;;6.75;;
18947;SDS011;9607;51.600;7.558;2023-07-30T06:49:29;10.20;;;5.90;;
18947;SDS011;9607;51.600;7.558;2023-07-30T06:51:59;13.50;;;6.90;;
18947;SDS011;9607;51.600;7.558;2023-07-30T06:54:26;9.20;;;5.82;;
18947;SDS011;9607;51.600;7.558;2023-07-30T06:56:53;12.32;;;6.47;;
18947;SDS011;9607;51.600;7.558;2023-07-30T06:59:20;12.55;;;6.18;;
18947;SDS011;9607;51.600;7.558;2023-07-30T07:01:46;9.85;;;5.68;;
18947;SDS011;9607;51.600;7.558;2023-07-30T07:04:13;10.13;;;6.28;;
18947;SDS011;9607;51.600;7.558;2023-07-30T07:06:41;7.70;;;4.95;;
18947;SDS011;9607;51.600;7.558;2023-07-30T07:09:08;8.93;;;5.95;;
18947;SDS011;9607;51.600;7.558;2023-07-30T07:11:35;10.85;;;6.50;;
18947;SDS011;9607;51.600;7.558;2023-07-30T07:14:02;18.42;;;7.22;;
18947;SDS011;9607;51.600;7.558;2023-07-30T07:16:29;9.88;;;5.45;;
18947;SDS011;9607;51.600;7.558;2023-07-30T07:18:56;10.48;;;6.13;;
18947;SDS011;9607;51.600;7.558;2023-07-30T07:21:23;8.00;;;5.63;;
18947;SDS011;9607;51.600;7.558;2023-07-30T07:23:52;8.30;;;5.93;;
18947;SDS011;9607;51.600;7.558;2023-07-30T07:26:20;12.18;;;7.25;;
18947;SDS011;9607;51.600;7.558;2023-07-30T07:28:47;16.90;;;7.45;;
18947;SDS011;9607;51.600;7.558;2023-07-30T07:31:14;13.20;;;7.88;;
18947;SDS011;9607;51.600;7.558;2023-07-30T07:33:41;12.35;;;7.05;;
18947;SDS011;9607;51.600;7.558;2023-07-30T07:36:09;10.63;;;6.97;;
18947;SDS011;9607;51.600;7.558;2023-07-30T07:38:36;8.98;;;5.75;;
18947;SDS011;9607;51.600;7.558;2023-07-30T07:41:04;11.68;;;5.88;;
18947;SDS011;9607;51.600;7.558;2023-07-30T07:43:31;9.48;;;5.93;;
18947;SDS011;9607;51.600;7.558;2023-07-30T07:45:58;9.43;;;6.18;;
18947;SDS011;9607;51.600;7.558;2023-07-30T07:48:25;8.82;;;5.38;;
18947;SDS011;9607;51.600;7.558;2023-07-30T07:50:52;8.73;;;4.40;;
18947;SDS011;9607;51.600;7.558;2023-07-30T07:53:19;8.05;;;4.50;;
18947;SDS011;9607;51.600;7.558;2023-07-30T07:55:46;8.13;;;4.50;;
18947;SDS011;9607;51.600;7.558;2023-07-30T07:58:14;11.15;;;5.32;;
18947;SDS011;9607;51.600;7.558;2023-07-30T08:00:41;9.93;;;5.00;;
18947;SDS011;9607;51.600;7.558;2023-07-30T08:03:08;10.77;;;5.18;;
18947;SDS011;9607;51.600;7.558;2023-07-30T08:05:34;10.90;;;5.32;;
18947;SDS011;9607;51.600;7.558;2023-07-30T08:08:01;9.05;;;4.97;;
18947;SDS011;9607;51.600;7.558;2023-07-30T08:10:28;10.43;;;5.72;;
18947;SDS011;9607;51.600;7.558;2023-07-30T08:12:55;9.48;;;5.50;;
18947;SDS011;9607;51.600;7.558;2023-07-30T08:15:23;9.18;;;5.55;;
18947;SDS011;9607;51.600;7.558;2023-07-30T08:17:50;8.35;;;4.93;;
18947;SDS011;9607;51.600;7.558;2023-07-30T08:20:17;11.27;;;5.32;;
18947;SDS011;9607;51.600;7.558;2023-07-30T08:22:44;11.70;;;5.22;;
18947;SDS011;9607;51.600;7.558;2023-07-30T08:25:11;8.90;;;5.07;;
18947;SDS011;9607;51.600;7.558;2023-07-30T08:27:37;10.25;;;5.00;;
18947;SDS011;9607;51.600;7.558;2023-07-30T08:30:05;9.65;;;5.63;;
18947;SDS011;9607;51.600;7.558;2023-07-30T08:32:34;10.63;;;6.72;;
18947;SDS011;9607;51.600;7.558;2023-07-30T08:35:00;10.27;;;6.85;;
18947;SDS011;9607;51.600;7.558;2023-07-30T08:37:27;8.85;;;6.22;;
18947;SDS011;9607;51.600;7.558;2023-07-30T08:39:54;10.18;;;6.25;;
18947;SDS011;9607;51.600;7.558;2023-07-30T08:42:22;10.15;;;6.05;;
18947;SDS011;9607;51.600;7.558;2023-07-30T08:44:49;9.43;;;6.13;;
18947;SDS011;9607;51.600;7.558;2023-07-30T08:47:15;8.13;;;5.80;;
18947;SDS011;9607;51.600;7.558;2023-07-30T08:49:44;7.55;;;5.35;;
18947;SDS011;9607;51.600;7.558;2023-07-30T08:52:11;10.38;;;5.57;;
18947;SDS011;9607;51.600;7.558;2023-07-30T08:54:38;9.10;;;5.60;;
18947;SDS011;9607;51.600;7.558;2023-07-30T08:57:07;7.15;;;5.38;;
18947;SDS011;9607;51.600;7.558;2023-07-30T08:59:36;6.43;;;4.80;;
18947;SDS011;9607;51.600;7.558;2023-07-30T09:02:10;6.43;;;4.85;;
18947;SDS011;9607;51.600;7.558;2023-07-30T09:04:41;8.23;;;4.97;;
18947;SDS011;9607;51.600;7.558;2023-07-30T09:07:13;8.85;;;4.63;;
18947;SDS011;9607;51.600;7.558;2023-07-30T09:09:39;7.28;;;4.45;;
18947;SDS011;9607;51.600;7.558;2023-07-30T09:12:12;7.30;;;4.10;;
18947;SDS011;9607;51.600;7.558;2023-07-30T09:14:40;7.68;;;3.80;;
18947;SDS011;9607;51.600;7.558;2023-07-30T09:17:09;5.50;;;3.97;;
18947;SDS011;9607;51.600;7.558;2023-07-30T09:19:36;8.45;;;3.72;;
18947;SDS011;9607;51.600;7.558;2023-07-30T09:22:05;8.65;;;4.22;;
18947;SDS011;9607;51.600;7.558;2023-07-30T09:24:32;8.23;;;4.38;;
18947;SDS011;9607;51.600;7.558;2023-07-30T09:27:01;7.97;;;3.90;;
18947;SDS011;9607;51.600;7.558;2023-07-30T09:29:28;7.07;;;4.20;;
18947;SDS011;9607;51.600;7.558;2023-07-30T09:31:55;7.22;;;3.88;;
18947;SDS011;9607;51.600;7.558;2023-07-30T09:34:23;7.47;;;4.03;;
18947;SDS011;9607;51.600;7.558;2023-07-30T09:36:51;9.27;;;3.25;;
18947;SDS011;9607;51.600;7.558;2023-07-30T09:39:21;8.38;;;3.70;;
18947;SDS011;9607;51.600;7.558;2023-07-30T09:41:49;6.60;;;3.20;;
18947;SDS011;9607;51.600;7.558;2023-07-30T09:44:17;6.15;;;3.22;;
18947;SDS011;9607;51.600;7.558;2023-07-30T09:46:45;7.57;;;2.90;;
18947;SDS011;9607;51.600;7.558;2023-07-30T09:49:12;7.03;;;2.95;;
18947;SDS011;9607;51.600;7.558;2023-07-30T09:51:40;5.75;;;2.97;;
18947;SDS011;9607;51.600;7.558;2023-07-30T09:54:07;5.55;;;2.55;;
18947;SDS011;9607;51.600;7.558;2023-07-30T09:56:37;6.05;;;2.45;;
18947;SDS011;9607;51.600;7.558;2023-07-30T09:59:05;9.45;;;2.90;;
18947;SDS011;9607;51.600;7.558;2023-07-30T10:01:34;5.97;;;2.47;;
18947;SDS011;9607;51.600;7.558;2023-07-30T10:04:08;12.98;;;3.22;;
18947;SDS011;9607;51.600;7.558;2023-07-30T10:06:36;9.38;;;3.35;;
18947;SDS011;9607;51.600;7.558;2023-07-30T10:09:07;8.23;;;3.00;;
18947;SDS011;9607;51.600;7.558;2023-07-30T10:11:37;11.98;;;3.30;;
18947;SDS011;9607;51.600;7.558;2023-07-30T10:14:06;7.97;;;2.90;;
18947;SDS011;9607;51.600;7.558;2023-07-30T10:16:34;9.27;;;2.80;;
18947;SDS011;9607;51.600;7.558;2023-07-30T10:19:00;9.90;;;2.70;;
18947;SDS011;9607;51.600;7.558;2023-07-30T10:21:28;7.53;;;2.58;;
18947;SDS011;9607;51.600;7.558;2023-07-30T10:24:00;11.30;;;2.60;;
18947;SDS011;9607;51.600;7.558;2023-07-30T10:26:28;9.00;;;2.65;;
18947;SDS011;9607;51.600;7.558;2023-07-30T10:29:13;7.38;;;3.15;;
18947;SDS011;9607;51.600;7.558;2023-07-30T10:31:42;6.50;;;2.28;;
18947;SDS011;9607;51.600;7.558;2023-07-30T10:34:10;7.60;;;2.08;;
18947;SDS011;9607;51.600;7.558;2023-07-30T10:36:40;8.98;;;2.65;;
18947;SDS011;9607;51.600;7.558;2023-07-30T10:39:13;6.22;;;2.00;;
18947;SDS011;9607;51.600;7.558;2023-07-30T10:41:42;5.22;;;2.00;;
18947;SDS011;9607;51.600;7.558;2023-07-30T10:44:23;6.00;;;2.10;;
18947;SDS011;9607;51.600;7.558;2023-07-30T10:46:50;5.22;;;1.90;;
18947;SDS011;9607;51.600;7.558;2023-07-30T10:49:17;7.10;;;2.47;;
18947;SDS011;9607;51.600;7.558;2023-07-30T10:51:44;5.03;;;1.88;;
18947;SDS011;9607;51.600;7.558;2023-07-30T10:54:11;6.45;;;2.17;;
18947;SDS011;9607;51.600;7.558;2023-07-30T10:56:38;9.80;;;2.00;;
18947;SDS011;9607;51.600;7.558;2023-07-30T10:59:06;4.93;;;1.88;;
18947;SDS011;9607;51.600;7.558;2023-07-30T11:01:37;4.88;;;1.63;;
18947;SDS011;9607;51.600;7.558;2023-07-30T11:04:06;4.88;;;1.98;;
18947;SDS011;9607;51.600;7.558;2023-07-30T11:06:33;3.47;;;1.50;;
18947;SDS011;9607;51.600;7.558;2023-07-30T11:09:00;7.13;;;1.50;;
18947;SDS011;9607;51.600;7.558;2023-07-30T11:11:27;5.03;;;1.73;;
18947;SDS011;9607;51.600;7.558;2023-07-30T11:13:54;8.15;;;2.00;;
18947;SDS011;9607;51.600;7.558;2023-07-30T11:16:21;5.13;;;1.63;;
18947;SDS011;9607;51.600;7.558;2023-07-30T11:18:49;8.38;;;2.05;;
18947;SDS011;9607;51.600;7.558;2023-07-30T11:21:17;5.55;;;1.88;;
18947;SDS011;9607;51.600;7.558;2023-07-30T11:23:44;7.18;;;1.70;;
18947;SDS011;9607;51.600;7.558;2023-07-30T11:26:13;3.97;;;1.33;;
18947;SDS011;9607;51.600;7.558;2023-07-30T11:28:41;3.88;;;1.30;;
18947;SDS011;9607;51.600;7.558;2023-07-30T11:31:09;5.45;;;1.40;;
18947;SDS011;9607;51.600;7.558;2023-07-30T11:33:38;3.67;;;1.50;;
18947;SDS011;9607;51.600;7.558;2023-07-30T11:36:09;6.22;;;1.60;;
18947;SDS011;9607;51.600;7.558;2023-07-30T11:38:38;5.40;;;1.58;;
18947;SDS011;9607;51.600;7.558;2023-07-30T11:41:05;5.40;;;1.70;;
18947;SDS011;9607;51.600;7.558;2023-07-30T11:43:35;4.20;;;1.77;;
18947;SDS011;9607;51.600;7.558;2023-07-30T11:46:10;4.35;;;1.85;;
18947;SDS011;9607;51.600;7.558;2023-07-30T11:48:39;4.50;;;1.67;;
18947;SDS011;9607;51.600;7.558;2023-07-30T11:51:17;7.57;;;1.50;;
18947;SDS011;9607;51.600;7.558;2023-07-30T11:53:46;9.95;;;2.05;;
18947;SDS011;9607;51.600;7.558;2023-07-30T11:56:18;6.40;;;1.85;;
18947;SDS011;9607;51.600;7.558;2023-07-30T11:58:49;7.40;;;1.45;;
18947;SDS011;9607;51.600;7.558;2023-07-30T12:01:17;5.32;;;1.45;;
18947;SDS011;9607;51.600;7.558;2023-07-30T12:03:44;4.78;;;1.63;;
18947;SDS011;9607;51.600;7.558;2023-07-30T12:06:13;5.70;;;1.73;;
18947;SDS011;9607;51.600;7.558;2023-07-30T12:08:40;4.47;;;1.35;;
18947;SDS011;9607;51.600;7.558;2023-07-30T12:11:08;6.50;;;1.77;;
18947;SDS011;9607;51.600;7.558;2023-07-30T12:13:42;8.32;;;2.53;;
18947;SDS011;9607;51.600;7.558;2023-07-30T12:16:10;6.50;;;1.80;;
18947;SDS011;9607;51.600;7.558;2023-07-30T12:18:38;6.57;;;1.80;;
18947;SDS011;9607;51.600;7.558;2023-07-30T12:21:05;6.15;;;1.35;;
18947;SDS011;9607;51.600;7.558;2023-07-30T12:23:34;6.40;;;1.67;;
18947;SDS011;9607;51.600;7.558;2023-07-30T12:26:02;6.72;;;2.00;;
18947;SDS011;9607;51.600;7.558;2023-07-30T12:28:30;5.82;;;1.75;;
18947;SDS011;9607;51.600;7.558;2023-07-30T12:30:58;4.07;;;1.67;;
18947;SDS011;9607;51.600;7.558;2023-07-30T12:33:24;2.83;;;1.25;;
18947;SDS011;9607;51.600;7.558;2023-07-30T12:35:51;8.95;;;1.95;;
18947;SDS011;9607;51.600;7.558;2023-07-30T12:38:18;6.80;;;1.80;;
18947;SDS011;9607;51.600;7.558;2023-07-30T12:40:46;4.32;;;1.08;;
18947;SDS011;9607;51.600;7.558;2023-07-30T12:43:13;5.25;;;1.50;;
18947;SDS011;9607;51.600;7.558;2023-07-30T12:45:40;5.10;;;1.80;;
18947;SDS011;9607;51.600;7.558;2023-07-30T12:48:07;4.25;;;1.52;;
18947;SDS011;9607;51.600;7.558;2023-07-30T12:50:33;5.05;;;1.33;;
18947;SDS011;9607;51.600;7.558;2023-07-30T12:53:00;4.38;;;1.52;;
18947;SDS011;9607;51.600;7.558;2023-07-30T12:55:27;5.97;;;1.80;;
18947;SDS011;9607;51.600;7.558;2023-07-30T12:57:55;3.85;;;1.42;;
18947;SDS011;9607;51.600;7.558;2023-07-30T13:00:22;4.53;;;1.75;;
18947;SDS011;9607;51.600;7.558;2023-07-30T13:02:49;6.10;;;1.70;;
18947;SDS011;9607;51.600;7.558;2023-07-30T13:05:17;5.20;;;1.50;;
18947;SDS011;9607;51.600;7.558;2023-07-30T13:07:45;4.25;;;1.30;;
18947;SDS011;9607;51.600;7.558;2023-07-30T13:10:12;4.60;;;1.63;;
18947;SDS011;9607;51.600;7.558;2023-07-30T13:12:40;5.25;;;1.48;;
18947;SDS011;9607;51.600;7.558;2023-07-30T13:15:09;3.72;;;1.38;;
18947;SDS011;9607;51.600;7.558;2023-07-30T13:17:36;1.55;;;0.85;;
18947;SDS011;9607;51.600;7.558;2023-07-30T13:20:04;3.45;;;0.80;;
18947;SDS011;9607;51.600;7.558;2023-07-30T13:22:31;3.35;;;1.23;;
18947;SDS011;9607;51.600;7.558;2023-07-30T13:24:58;5.15;;;1.20;;
18947;SDS011;9607;51.600;7.558;2023-07-30T13:27:25;2.58;;;1.25;;
18947;SDS011;9607;51.600;7.558;2023-07-30T13:29:52;6.57;;;1.88;;
18947;SDS011;9607;51.600;7.558;2023-07-30T13:32:20;4.35;;;1.40;;
18947;SDS011;9607;51.600;7.558;2023-07-30T13:34:47;3.42;;;1.00;;
18947;SDS011;9607;51.600;7.558;2023-07-30T13:37:13;5.55;;;1.20;;
18947;SDS011;9607;51.600;7.558;2023-07-30T13:39:40;4.18;;;1.50;;
18947;SDS011;9607;51.600;7.558;2023-07-30T13:42:07;5.38;;;1.50;;
18947;SDS011;9607;51.600;7.558;2023-07-30T13:44:34;5.22;;;1.88;;
18947;SDS011;9607;51.600;7.558;2023-07-30T13:47:01;5.28;;;1.73;;
18947;SDS011;9607;51.600;7.558;2023-07-30T13:49:29;3.75;;;1.77;;
18947;SDS011;9607;51.600;7.558;2023-07-30T13:51:56;3.25;;;1.70;;
18947;SDS011;9607;51.600;7.558;2023-07-30T13:54:22;5.22;;;2.00;;
18947;SDS011;9607;51.600;7.558;2023-07-30T13:56:49;5.25;;;2.17;;
18947;SDS011;9607;51.600;7.558;2023-07-30T13:59:16;4.95;;;2.17;;
18947;SDS011;9607;51.600;7.558;2023-07-30T14:01:43;6.05;;;2.08;;
18947;SDS011;9607;51.600;7.558;2023-07-30T14:04:09;7.43;;;2.22;;
18947;SDS011;9607;51.600;7.558;2023-07-30T14:06:38;7.72;;;2.10;;
18947;SDS011;9607;51.600;7.558;2023-07-30T14:09:04;3.85;;;2.03;;
18947;SDS011;9607;51.600;7.558;2023-07-30T14:11:31;7.88;;;1.60;;
18947;SDS011;9607;51.600;7.558;2023-07-30T14:13:58;5.68;;;1.65;;
18947;SDS011;9607;51.600;7.558;2023-07-30T14:16:25;4.25;;;1.40;;
18947;SDS011;9607;51.600;7.558;2023-07-30T14:18:52;4.65;;;1.60;;
18947;SDS011;9607;51.600;7.558;2023-07-30T14:21:18;2.70;;;1.30;;
18947;SDS011;9607;51.600;7.558;2023-07-30T14:23:47;4.60;;;1.45;;
18947;SDS011;9607;51.600;7.558;2023-07-30T14:26:14;5.20;;;1.48;;
18947;SDS011;9607;51.600;7.558;2023-07-30T14:28:41;3.00;;;1.13;;
18947;SDS011;9607;51.600;7.558;2023-07-30T14:31:08;4.55;;;1.50;;
18947;SDS011;9607;51.600;7.558;2023-07-30T14:33:34;5.57;;;1.77;;
18947;SDS011;9607;51.600;7.558;2023-07-30T14:36:01;3.00;;;1.58;;
18947;SDS011;9607;51.600;7.558;2023-07-30T14:38:29;3.05;;;1.45;;
18947;SDS011;9607;51.600;7.558;2023-07-30T14:41:00;3.38;;;1.45;;
18947;SDS011;9607;51.600;7.558;2023-07-30T14:43:27;4.03;;;1.48;;
18947;SDS011;9607;51.600;7.558;2023-07-30T14:45:54;5.53;;;1.40;;
18947;SDS011;9607;51.600;7.558;2023-07-30T14:48:21;3.63;;;1.30;;
18947;SDS011;9607;51.600;7.558;2023-07-30T14:50:48;3.92;;;1.55;;
18947;SDS011;9607;51.600;7.558;2023-07-30T14:53:15;4.03;;;1.42;;
18947;SDS011;9607;51.600;7.558;2023-07-30T14:55:42;3.67;;;1.35;;
18947;SDS011;9607;51.600;7.558;2023-07-30T14:58:10;4.20;;;1.58;;
18947;SDS011;9607;51.600;7.558;2023-07-30T15:00:37;6.47;;;1.52;;